Time;durP1;ratioP1;P1;durP2;ratioP2;P2;SDS_P1;SDS_P2;PMS_P1;PMS_P2;Temp;Humidity;BMP_temperature;BMP_pressure;BME280_temperature;BME280_humidity;BME280_pressure;Samples;Min_cycle;Max_cycle;Signal;HPM_P1;HPM_P2
2023/12/01 00:01:19;;;;;;;24.20;17.20;;;;;;;;;;4992919;28;20219;-80
2023/12/01 00:03:48;;;;;;;23.70;17.33;;;;;;;;;;4959533;28;20180;-80
2023/12/01 00:06:14;;;;;;;20.20;15.23;;;;;;;;;;4960665;28;20226;-80
2023/12/01 00:08:41;;;;;;;20.60;15.07;;;;;;;;;;4991467;28;20335;-80
2023/12/01 00:11:07;;;;;;;22.93;15.30;;;;;;;;;;4991630;28;20191;-80
2023/12/01 00:13:33;;;;;;;23.23;15.67;;;;;;;;;;4992082;28;20203;-80
2023/12/01 00:15:59;;;;;;;21.53;14.93;;;;;;;;;;4989390;28;20175;-80
2023/12/01 00:18:26;;;;;;;23.83;16.20;;;;;;;;;;4975314;28;20620;-80
2023/12/01 00:20:52;;;;;;;24.23;16.60;;;;;;;;;;4992760;28;20242;-80
2023/12/01 00:23:19;;;;;;;21.27;15.90;;;;;;;;;;4991092;28;20215;-80
2023/12/01 00:25:45;;;;;;;25.10;17.50;;;;;;;;;;4992941;28;20229;-80
2023/12/01 00:28:11;;;;;;;26.40;18.10;;;;;;;;;;4991313;28;20231;-80
2023/12/01 00:30:37;;;;;;;27.90;18.67;;;;;;;;;;4973300;28;20192;-80
2023/12/01 00:33:04;;;;;;;33.70;22.03;;;;;;;;;;4990946;28;20180;-78
2023/12/01 00:35:30;;;;;;;33.67;22.77;;;;;;;;;;4974526;28;20187;-79
2023/12/01 00:37:56;;;;;;;29.23;19.93;;;;;;;;;;4989616;28;20222;-77
2023/12/01 00:40:25;;;;;;;28.73;19.37;;;;;;;;;;4971733;28;20553;-77
2023/12/01 00:42:51;;;;;;;29.70;19.80;;;;;;;;;;5003402;28;20245;-78
2023/12/01 00:45:17;;;;;;;29.10;19.10;;;;;;;;;;4990408;28;20179;-78
2023/12/01 00:47:43;;;;;;;27.27;18.83;;;;;;;;;;4987095;28;20211;-77
2023/12/01 00:50:10;;;;;;;24.77;17.93;;;;;;;;;;4971878;28;20203;-78
2023/12/01 00:52:36;;;;;;;24.40;17.43;;;;;;;;;;4986336;28;20180;-77
2023/12/01 00:55:02;;;;;;;26.03;17.33;;;;;;;;;;4989421;28;20250;-78
2023/12/01 00:57:29;;;;;;;23.37;16.73;;;;;;;;;;4986416;28;20214;-77
2023/12/01 00:59:55;;;;;;;22.97;16.87;;;;;;;;;;4990653;28;20595;-78
2023/12/01 01:02:21;;;;;;;24.23;16.93;;;;;;;;;;4987002;28;22457;-77
2023/12/01 01:04:48;;;;;;;26.93;18.40;;;;;;;;;;4971992;28;20183;-78
2023/12/01 01:07:14;;;;;;;23.87;17.17;;;;;;;;;;4987767;28;20214;-78
2023/12/01 01:09:40;;;;;;;27.87;19.30;;;;;;;;;;4990556;28;20184;-77
2023/12/01 01:12:07;;;;;;;24.57;17.73;;;;;;;;;;4989267;28;20651;-78
2023/12/01 01:14:33;;;;;;;24.77;17.30;;;;;;;;;;4999156;28;20184;-77
2023/12/01 01:16:59;;;;;;;25.67;18.37;;;;;;;;;;4978265;28;20699;-77
2023/12/01 01:19:25;;;;;;;27.63;18.13;;;;;;;;;;4988615;28;20663;-77
2023/12/01 01:21:51;;;;;;;22.80;16.33;;;;;;;;;;4989405;28;20220;-77
2023/12/01 01:24:17;;;;;;;25.60;18.13;;;;;;;;;;4987936;28;20317;-78
2023/12/01 01:26:44;;;;;;;29.37;19.87;;;;;;;;;;4988359;28;20565;-77
2023/12/01 01:29:10;;;;;;;29.93;20.70;;;;;;;;;;4987168;28;20407;-77
2023/12/01 01:31:36;;;;;;;30.07;21.53;;;;;;;;;;4989730;28;20656;-77
2023/12/01 01:34:02;;;;;;;30.50;21.27;;;;;;;;;;4989090;28;20210;-78
2023/12/01 01:36:28;;;;;;;28.73;19.67;;;;;;;;;;4954673;28;20211;-78
2023/12/01 01:38:54;;;;;;;28.30;19.60;;;;;;;;;;4987693;28;20207;-78
2023/12/01 01:41:21;;;;;;;29.53;20.40;;;;;;;;;;4972762;28;20644;-77
2023/12/01 01:43:47;;;;;;;28.17;19.97;;;;;;;;;;4986803;28;20188;-77
2023/12/01 01:46:14;;;;;;;29.03;19.57;;;;;;;;;;4970216;28;20366;-77
2023/12/01 01:48:43;;;;;;;29.90;19.47;;;;;;;;;;4987476;28;20196;-78
2023/12/01 01:51:10;;;;;;;27.17;19.20;;;;;;;;;;4988977;28;20250;-78
2023/12/01 01:53:37;;;;;;;29.77;20.83;;;;;;;;;;4986248;28;20176;-77
2023/12/01 01:56:04;;;;;;;30.70;21.70;;;;;;;;;;4988464;28;20227;-77
2023/12/01 01:58:30;;;;;;;34.70;22.83;;;;;;;;;;4986775;28;20200;-78
2023/12/01 02:00:56;;;;;;;35.27;21.87;;;;;;;;;;4985853;28;20282;-77
2023/12/01 02:03:23;;;;;;;32.40;22.63;;;;;;;;;;4971407;28;20235;-78
2023/12/01 02:05:49;;;;;;;29.47;20.60;;;;;;;;;;4987000;28;20195;-77
2023/12/01 02:08:25;;;;;;;31.83;22.03;;;;;;;;;;4987189;28;20227;-78
2023/12/01 02:10:52;;;;;;;29.90;20.70;;;;;;;;;;4989282;28;20651;-77
2023/12/01 02:13:19;;;;;;;30.70;20.90;;;;;;;;;;4985492;28;20187;-77
2023/12/01 02:15:45;;;;;;;31.63;20.97;;;;;;;;;;4987343;28;20218;-77
2023/12/01 02:18:23;;;;;;;30.80;20.70;;;;;;;;;;4988610;28;20212;-77
2023/12/01 02:20:52;;;;;;;29.63;20.50;;;;;;;;;;4989018;28;20298;-77
2023/12/01 02:23:19;;;;;;;33.10;19.70;;;;;;;;;;4988531;28;20613;-77
2023/12/01 02:25:45;;;;;;;28.67;19.93;;;;;;;;;;4971836;28;20199;-77
2023/12/01 02:28:12;;;;;;;27.20;19.40;;;;;;;;;;4986761;28;20200;-78
2023/12/01 02:30:38;;;;;;;30.17;20.77;;;;;;;;;;4985956;28;20322;-78
2023/12/01 02:33:04;;;;;;;28.13;17.80;;;;;;;;;;4988226;28;20779;-78
2023/12/01 02:35:30;;;;;;;26.20;18.20;;;;;;;;;;4989468;28;20270;-77
2023/12/01 02:37:57;;;;;;;28.50;19.70;;;;;;;;;;4986744;28;20269;-77
2023/12/01 02:40:23;;;;;;;27.57;19.77;;;;;;;;;;4989533;28;20187;-78
2023/12/01 02:42:50;;;;;;;27.13;19.80;;;;;;;;;;4968953;28;20581;-77
2023/12/01 02:45:18;;;;;;;26.27;18.23;;;;;;;;;;4970911;28;20187;-77
2023/12/01 02:47:49;;;;;;;29.37;20.33;;;;;;;;;;4987211;28;20204;-77
2023/12/01 02:50:15;;;;;;;26.20;17.93;;;;;;;;;;4983930;28;20184;-78
2023/12/01 02:52:41;;;;;;;24.27;17.70;;;;;;;;;;5000353;28;20188;-78
2023/12/01 02:55:08;;;;;;;25.13;17.53;;;;;;;;;;4972153;28;20183;-77
2023/12/01 02:57:41;;;;;;;23.23;16.97;;;;;;;;;;4970864;28;20652;-78
2023/12/01 03:00:14;;;;;;;24.27;17.80;;;;;;;;;;4983710;28;20201;-77
2023/12/01 03:02:44;;;;;;;25.63;18.37;;;;;;;;;;4997769;28;20212;-78
2023/12/01 03:05:11;;;;;;;25.40;17.83;;;;;;;;;;4999302;28;20292;-78
2023/12/01 03:07:38;;;;;;;29.90;20.00;;;;;;;;;;4986467;28;20563;-77
2023/12/01 03:10:05;;;;;;;30.57;19.77;;;;;;;;;;4982476;28;20176;-78
2023/12/01 03:12:31;;;;;;;27.07;18.30;;;;;;;;;;4990050;28;20672;-77
2023/12/01 03:15:00;;;;;;;29.30;19.40;;;;;;;;;;4992763;28;20180;-77
2023/12/01 03:17:26;;;;;;;28.20;17.80;;;;;;;;;;4990494;28;20212;-77
2023/12/01 03:19:53;;;;;;;31.30;18.63;;;;;;;;;;5006976;28;20187;-77
2023/12/01 03:22:19;;;;;;;30.50;18.57;;;;;;;;;;5006449;28;20215;-77
2023/12/01 03:24:47;;;;;;;32.90;21.30;;;;;;;;;;5002428;28;20628;-77
2023/12/01 03:27:25;;;;;;;35.73;21.57;;;;;;;;;;4985079;28;20210;-77
2023/12/01 03:29:54;;;;;;;37.23;22.73;;;;;;;;;;4989007;28;20259;-78
2023/12/01 03:32:21;;;;;;;33.20;20.80;;;;;;;;;;4955112;28;20192;-77
2023/12/01 03:34:47;;;;;;;34.27;20.70;;;;;;;;;;4989799;28;20196;-77
2023/12/01 03:37:13;;;;;;;30.73;19.33;;;;;;;;;;4967992;28;20223;-77
2023/12/01 03:39:39;;;;;;;33.97;20.40;;;;;;;;;;4989983;28;20334;-77
2023/12/01 03:42:05;;;;;;;38.47;21.17;;;;;;;;;;4985242;28;20277;-78
2023/12/01 03:44:33;;;;;;;46.03;23.50;;;;;;;;;;4988795;28;20191;-77
2023/12/01 03:46:59;;;;;;;45.13;23.80;;;;;;;;;;4992383;28;20704;-77
2023/12/01 03:49:25;;;;;;;47.23;23.43;;;;;;;;;;4973876;28;20220;-77
2023/12/01 03:51:52;;;;;;;41.03;22.83;;;;;;;;;;4975732;28;20192;-77
2023/12/01 03:54:19;;;;;;;40.63;21.40;;;;;;;;;;4990162;28;20204;-78
2023/12/01 03:56:46;;;;;;;41.80;22.23;;;;;;;;;;4972729;28;20200;-77
2023/12/01 03:59:12;;;;;;;39.57;22.43;;;;;;;;;;4991030;28;20184;-78
2023/12/01 04:01:39;;;;;;;39.57;21.47;;;;;;;;;;4991311;28;20746;-77
2023/12/01 04:04:05;;;;;;;38.33;21.27;;;;;;;;;;4972590;28;20180;-78
2023/12/01 04:06:33;;;;;;;37.53;20.83;;;;;;;;;;4975423;28;20180;-77
2023/12/01 04:09:05;;;;;;;35.03;19.73;;;;;;;;;;4990333;28;20251;-77
2023/12/01 04:11:31;;;;;;;37.77;19.47;;;;;;;;;;4989489;28;20235;-78
2023/12/01 04:13:57;;;;;;;38.60;21.20;;;;;;;;;;4959126;28;20238;-79
2023/12/01 04:16:24;;;;;;;39.03;20.67;;;;;;;;;;4984978;28;20188;-78
2023/12/01 04:18:53;;;;;;;40.37;21.40;;;;;;;;;;5002370;28;20210;-78
2023/12/01 04:21:20;;;;;;;38.60;21.30;;;;;;;;;;4973790;28;20215;-78
2023/12/01 04:23:46;;;;;;;37.57;20.07;;;;;;;;;;4971964;28;20275;-77
2023/12/01 04:26:12;;;;;;;34.50;19.33;;;;;;;;;;4970807;28;20196;-77
2023/12/01 04:28:38;;;;;;;33.03;18.37;;;;;;;;;;4988759;28;20203;-77
2023/12/01 04:31:05;;;;;;;34.30;19.23;;;;;;;;;;4989472;28;20176;-77
2023/12/01 04:33:31;;;;;;;34.63;19.27;;;;;;;;;;4987753;28;20191;-77
2023/12/01 04:35:57;;;;;;;33.80;19.17;;;;;;;;;;4990221;28;20278;-78
2023/12/01 04:38:23;;;;;;;32.73;17.97;;;;;;;;;;4986598;28;20667;-78
2023/12/01 04:40:50;;;;;;;31.43;18.43;;;;;;;;;;4983317;28;20203;-78
2023/12/01 04:43:19;;;;;;;34.43;18.73;;;;;;;;;;4988241;28;20216;-76
2023/12/01 04:45:45;;;;;;;31.67;17.93;;;;;;;;;;4988674;28;20843;-79
2023/12/01 04:48:11;;;;;;;31.70;18.17;;;;;;;;;;4985880;28;20323;-78
2023/12/01 04:50:47;;;;;;;30.60;17.60;;;;;;;;;;4990359;28;20195;-78
2023/12/01 04:53:13;;;;;;;28.27;17.00;;;;;;;;;;4983300;28;20203;-76
2023/12/01 04:55:40;;;;;;;34.57;18.27;;;;;;;;;;4993506;28;20199;-76
2023/12/01 04:58:06;;;;;;;31.27;17.93;;;;;;;;;;4987138;28;20204;-76
2023/12/01 05:00:32;;;;;;;30.33;18.13;;;;;;;;;;4986675;28;20219;-80
2023/12/01 05:02:59;;;;;;;30.97;18.43;;;;;;;;;;5007572;28;20234;-78
2023/12/01 05:05:26;;;;;;;30.23;18.37;;;;;;;;;;4987317;28;20192;-76
2023/12/01 05:07:56;;;;;;;31.30;18.83;;;;;;;;;;4984379;28;20613;-77
2023/12/01 05:10:23;;;;;;;34.00;19.67;;;;;;;;;;4992622;28;20180;-77
2023/12/01 05:12:50;;;;;;;31.17;17.80;;;;;;;;;;4989484;28;20199;-77
2023/12/01 05:15:20;;;;;;;33.17;18.63;;;;;;;;;;4989261;28;20196;-77
2023/12/01 05:17:47;;;;;;;35.13;19.73;;;;;;;;;;4987037;28;20203;-79
2023/12/01 05:20:17;;;;;;;35.07;19.30;;;;;;;;;;4975030;28;20199;-79
2023/12/01 05:22:44;;;;;;;36.40;19.43;;;;;;;;;;4988012;28;20635;-77
2023/12/01 05:25:13;;;;;;;40.23;19.83;;;;;;;;;;4989830;28;20194;-77
2023/12/01 05:27:41;;;;;;;38.60;20.33;;;;;;;;;;4987577;28;20196;-79
2023/12/01 05:30:07;;;;;;;41.07;21.40;;;;;;;;;;4990434;28;20219;-80
2023/12/01 05:32:33;;;;;;;37.37;19.83;;;;;;;;;;4988005;28;20198;-76
2023/12/01 05:35:00;;;;;;;35.83;19.60;;;;;;;;;;4991307;28;20195;-76
2023/12/01 05:37:26;;;;;;;39.97;20.73;;;;;;;;;;4986036;28;20218;-76
2023/12/01 05:39:52;;;;;;;40.87;20.53;;;;;;;;;;4989949;28;20294;-76
2023/12/01 05:42:18;;;;;;;35.43;19.00;;;;;;;;;;4986575;28;20218;-77
2023/12/01 05:44:44;;;;;;;39.75;24.05;;;;;;;;;;4990065;28;20424;-79
2023/12/01 05:47:11;;;;;;;44.00;23.67;;;;;;;;;;4989196;28;20700;-77
2023/12/01 05:49:37;;;;;;;40.63;22.20;;;;;;;;;;4985119;28;20199;-78
2023/12/01 05:52:03;;;;;;;40.20;22.20;;;;;;;;;;4992261;28;20242;-78
2023/12/01 05:54:29;;;;;;;38.70;20.57;;;;;;;;;;5005567;28;20184;-79
2023/12/01 05:56:56;;;;;;;40.30;22.13;;;;;;;;;;4987657;28;20212;-82
2023/12/01 05:59:22;;;;;;;42.67;21.90;;;;;;;;;;4971614;28;20663;-78
2023/12/01 06:01:48;;;;;;;44.03;22.97;;;;;;;;;;4968514;28;20227;-76
2023/12/01 06:04:15;;;;;;;39.40;21.00;;;;;;;;;;4982320;28;20212;-76
2023/12/01 06:06:42;;;;;;;39.27;20.43;;;;;;;;;;4984532;28;20258;-77
2023/12/01 06:09:08;;;;;;;38.53;20.80;;;;;;;;;;4987593;28;20443;-77
2023/12/01 06:11:34;;;;;;;38.07;19.73;;;;;;;;;;4985915;28;20192;-79
2023/12/01 06:14:00;;;;;;;36.23;19.80;;;;;;;;;;4986903;28;20206;-76
2023/12/01 06:16:27;;;;;;;40.47;20.70;;;;;;;;;;4987370;28;20226;-77
2023/12/01 06:18:53;;;;;;;38.23;20.93;;;;;;;;;;4987734;28;20270;-76
2023/12/01 06:21:19;;;;;;;39.37;20.97;;;;;;;;;;4987055;28;20199;-76
2023/12/01 06:23:45;;;;;;;40.40;22.77;;;;;;;;;;4969449;28;20279;-77
2023/12/01 06:26:11;;;;;;;38.73;21.80;;;;;;;;;;4981731;28;20238;-76
2023/12/01 06:28:37;;;;;;;40.03;21.63;;;;;;;;;;4982424;28;20302;-78
2023/12/01 06:31:05;;;;;;;40.13;21.23;;;;;;;;;;5004260;28;20188;-76
2023/12/01 06:33:31;;;;;;;37.30;20.93;;;;;;;;;;4986208;28;20711;-76
2023/12/01 06:35:58;;;;;;;40.03;20.97;;;;;;;;;;4986419;28;20297;-75
2023/12/01 06:38:24;;;;;;;40.23;20.63;;;;;;;;;;4985920;28;20298;-78
2023/12/01 06:40:50;;;;;;;37.80;20.50;;;;;;;;;;4967867;28;20184;-78
2023/12/01 06:43:16;;;;;;;41.23;21.47;;;;;;;;;;4981911;28;20238;-78
2023/12/01 06:45:44;;;;;;;39.07;21.47;;;;;;;;;;4984843;28;20656;-75
2023/12/01 06:48:11;;;;;;;43.33;22.17;;;;;;;;;;4986545;28;20302;-75
2023/12/01 06:50:37;;;;;;;39.53;21.37;;;;;;;;;;4986230;28;20196;-75
2023/12/01 06:53:06;;;;;;;40.30;21.53;;;;;;;;;;4986920;28;20711;-76
2023/12/01 06:55:32;;;;;;;40.77;21.23;;;;;;;;;;4969707;28;20195;-79
2023/12/01 06:57:58;;;;;;;45.47;21.63;;;;;;;;;;4998638;28;20213;-75
2023/12/01 07:00:33;;;;;;;41.43;21.63;;;;;;;;;;4987818;28;20188;-75
2023/12/01 07:03:00;;;;;;;40.73;20.83;;;;;;;;;;4998705;28;20239;-74
2023/12/01 07:05:27;;;;;;;42.37;21.30;;;;;;;;;;4990431;28;20230;-76
2023/12/01 07:07:53;;;;;;;43.47;23.07;;;;;;;;;;4989906;28;20205;-75
2023/12/01 07:10:21;;;;;;;43.10;22.03;;;;;;;;;;4975499;28;20176;-76
2023/12/01 07:12:48;;;;;;;42.47;22.57;;;;;;;;;;4987977;28;20547;-76
2023/12/01 07:15:20;;;;;;;43.28;24.30;;;;;;;;;;4975993;28;20424;-76
2023/12/01 07:17:48;;;;;;;41.67;23.03;;;;;;;;;;4989428;28;20379;-78
2023/12/01 07:20:14;;;;;;;48.83;24.33;;;;;;;;;;4980117;28;20176;-76
2023/12/01 07:22:42;;;;;;;48.53;24.77;;;;;;;;;;4987618;28;20225;-78
2023/12/01 07:25:10;;;;;;;41.20;21.90;;;;;;;;;;4989457;28;20219;-76
2023/12/01 07:27:40;;;;;;;43.37;21.37;;;;;;;;;;4989492;28;20207;-76
2023/12/01 07:30:06;;;;;;;42.07;21.67;;;;;;;;;;4987469;28;20184;-76
2023/12/01 07:32:33;;;;;;;37.30;19.93;;;;;;;;;;5003999;28;20328;-77
2023/12/01 07:34:59;;;;;;;42.27;21.93;;;;;;;;;;5003156;28;20191;-76
2023/12/01 07:37:25;;;;;;;40.10;21.10;;;;;;;;;;4987145;28;20215;-77
2023/12/01 07:39:52;;;;;;;44.50;22.27;;;;;;;;;;4990412;28;20207;-76
2023/12/01 07:42:18;;;;;;;43.00;21.87;;;;;;;;;;4984150;28;20233;-79
2023/12/01 07:44:44;;;;;;;42.77;21.63;;;;;;;;;;4989983;28;20248;-77
2023/12/01 07:47:11;;;;;;;44.27;22.73;;;;;;;;;;5004121;28;20291;-84
2023/12/01 07:49:38;;;;;;;44.93;22.60;;;;;;;;;;4976722;28;20195;-85
2023/12/01 07:52:06;;;;;;;38.47;19.80;;;;;;;;;;4975585;28;20261;-84
2023/12/01 07:54:36;;;;;;;40.07;21.07;;;;;;;;;;4988352;28;20192;-85
2023/12/01 07:57:02;;;;;;;41.60;22.20;;;;;;;;;;4988664;28;20210;-84
2023/12/01 07:59:28;;;;;;;39.07;20.13;;;;;;;;;;4974441;28;20199;-84
2023/12/01 08:01:54;;;;;;;38.13;20.53;;;;;;;;;;4991200;28;20215;-84
2023/12/01 08:04:21;;;;;;;41.97;22.03;;;;;;;;;;4974043;28;20198;-84
2023/12/01 08:06:47;;;;;;;34.17;19.40;;;;;;;;;;4990412;28;20538;-84
2023/12/01 08:09:16;;;;;;;39.63;21.43;;;;;;;;;;5006335;28;20267;-84
2023/12/01 08:11:43;;;;;;;39.77;20.30;;;;;;;;;;4972624;28;20207;-85
2023/12/01 08:14:10;;;;;;;36.10;20.40;;;;;;;;;;4973092;28;20188;-85
2023/12/01 08:16:36;;;;;;;38.20;21.03;;;;;;;;;;5002678;28;20192;-84
2023/12/01 08:19:03;;;;;;;36.40;20.33;;;;;;;;;;4973602;28;20206;-82
2023/12/01 08:21:31;;;;;;;37.27;20.53;;;;;;;;;;4985174;28;20207;-83
2023/12/01 08:23:58;;;;;;;39.13;21.60;;;;;;;;;;4983283;28;20194;-83
2023/12/01 08:26:24;;;;;;;40.67;22.63;;;;;;;;;;4983551;28;20214;-82
2023/12/01 08:28:51;;;;;;;39.07;22.37;;;;;;;;;;4981111;28;20259;-83
2023/12/01 08:31:17;;;;;;;39.00;22.00;;;;;;;;;;4961474;28;20199;-82
2023/12/01 08:33:44;;;;;;;34.33;20.10;;;;;;;;;;4975818;28;20684;-79
2023/12/01 08:36:10;;;;;;;31.77;18.33;;;;;;;;;;4992038;28;20191;-80
2023/12/01 08:38:36;;;;;;;37.40;20.83;;;;;;;;;;4992801;28;20683;-80
2023/12/01 08:41:03;;;;;;;37.07;20.87;;;;;;;;;;4984060;28;20219;-81
2023/12/01 08:43:29;;;;;;;35.43;20.23;;;;;;;;;;4966189;28;20212;-81
2023/12/01 08:45:55;;;;;;;35.80;19.83;;;;;;;;;;4990705;28;20689;-80
2023/12/01 08:48:21;;;;;;;34.23;19.60;;;;;;;;;;4973831;28;20231;-80
2023/12/01 08:50:47;;;;;;;35.20;21.23;;;;;;;;;;4973694;28;20219;-80
2023/12/01 08:53:14;;;;;;;33.90;20.07;;;;;;;;;;4990335;28;20219;-78
2023/12/01 08:55:40;;;;;;;37.57;21.87;;;;;;;;;;4989276;28;20183;-80
2023/12/01 08:58:06;;;;;;;37.97;21.77;;;;;;;;;;4989256;28;20681;-80
2023/12/01 09:00:32;;;;;;;37.63;21.63;;;;;;;;;;4989998;28;20187;-80
2023/12/01 09:02:58;;;;;;;34.17;19.90;;;;;;;;;;4973617;28;20267;-81
2023/12/01 09:05:24;;;;;;;33.63;20.53;;;;;;;;;;4981526;28;20434;-80
2023/12/01 09:07:51;;;;;;;33.63;19.93;;;;;;;;;;4974170;28;20212;-80
2023/12/01 09:10:19;;;;;;;34.50;20.33;;;;;;;;;;4990541;28;20226;-79
2023/12/01 09:12:46;;;;;;;32.87;20.77;;;;;;;;;;4956685;28;20199;-78
2023/12/01 09:15:12;;;;;;;37.50;22.13;;;;;;;;;;4996197;28;20191;-81
2023/12/01 09:17:38;;;;;;;38.70;23.53;;;;;;;;;;4978823;28;20204;-81
2023/12/01 09:20:05;;;;;;;38.53;23.00;;;;;;;;;;4969029;28;20188;-81
2023/12/01 09:22:31;;;;;;;36.30;21.23;;;;;;;;;;4993953;28;20266;-81
2023/12/01 09:24:57;;;;;;;36.87;22.17;;;;;;;;;;4994347;28;20279;-81
2023/12/01 09:27:24;;;;;;;35.03;21.80;;;;;;;;;;4991068;28;20211;-77
2023/12/01 09:29:50;;;;;;;35.97;20.33;;;;;;;;;;4988791;28;20267;-77
2023/12/01 09:32:19;;;;;;;36.67;21.47;;;;;;;;;;4988703;28;20203;-78
2023/12/01 09:34:45;;;;;;;34.83;20.47;;;;;;;;;;4990127;28;20275;-78
2023/12/01 09:37:12;;;;;;;34.93;21.43;;;;;;;;;;4988604;28;20211;-80
2023/12/01 09:39:39;;;;;;;33.53;19.87;;;;;;;;;;4963954;28;20184;-80
2023/12/01 09:42:06;;;;;;;33.30;20.07;;;;;;;;;;4989979;28;20690;-80
2023/12/01 09:44:32;;;;;;;37.87;21.53;;;;;;;;;;4974522;28;20196;-80
2023/12/01 09:47:00;;;;;;;33.47;19.43;;;;;;;;;;4973108;28;20247;-80
2023/12/01 09:49:28;;;;;;;33.03;20.87;;;;;;;;;;4990572;28;20552;-80
2023/12/01 09:51:54;;;;;;;33.97;20.63;;;;;;;;;;4990471;28;20183;-80
2023/12/01 09:54:20;;;;;;;35.27;20.43;;;;;;;;;;4973525;28;20199;-80
2023/12/01 09:56:46;;;;;;;35.23;20.37;;;;;;;;;;4989931;28;20214;-79
2023/12/01 09:59:16;;;;;;;35.13;21.13;;;;;;;;;;4996757;28;20184;-79
2023/12/01 10:01:44;;;;;;;35.77;20.83;;;;;;;;;;4985528;28;20196;-80
2023/12/01 10:04:10;;;;;;;33.17;20.50;;;;;;;;;;4991177;28;20210;-80
2023/12/01 10:06:40;;;;;;;34.47;20.70;;;;;;;;;;4964919;28;20175;-80
2023/12/01 10:09:09;;;;;;;35.50;20.90;;;;;;;;;;5004425;28;20215;-79
2023/12/01 10:11:36;;;;;;;35.47;20.33;;;;;;;;;;4973967;28;20196;-80
2023/12/01 10:14:08;;;;;;;31.27;19.50;;;;;;;;;;4974948;28;20738;-80
2023/12/01 10:16:35;;;;;;;33.50;20.43;;;;;;;;;;4966560;28;20215;-80
2023/12/01 10:19:04;;;;;;;35.13;20.23;;;;;;;;;;4966988;28;20223;-80
2023/12/01 10:21:56;;;;;;;35.93;20.77;;;;;;;;;;4973896;28;20195;-80
2023/12/01 10:24:23;;;;;;;38.10;21.03;;;;;;;;;;4989780;28;20204;-80
2023/12/01 10:26:50;;;;;;;36.43;20.30;;;;;;;;;;4993998;28;20203;-80
2023/12/01 10:29:28;;;;;;;38.63;21.10;;;;;;;;;;4979407;28;20586;-78
2023/12/01 10:31:58;;;;;;;37.33;20.47;;;;;;;;;;4975105;28;20214;-80
2023/12/01 10:34:24;;;;;;;35.93;19.97;;;;;;;;;;4992556;28;20198;-80
2023/12/01 10:36:52;;;;;;;36.07;20.07;;;;;;;;;;4992031;28;20206;-80
2023/12/01 10:39:20;;;;;;;35.80;20.50;;;;;;;;;;4976253;28;20188;-80
2023/12/01 10:41:47;;;;;;;36.10;21.33;;;;;;;;;;4975235;28;20202;-80
2023/12/01 10:44:16;;;;;;;32.40;19.33;;;;;;;;;;4993500;28;20306;-80
2023/12/01 10:46:45;;;;;;;33.33;19.57;;;;;;;;;;4991492;28;20310;-80
2023/12/01 10:49:12;;;;;;;29.90;18.43;;;;;;;;;;4992466;28;20617;-80
2023/12/01 10:51:41;;;;;;;30.23;18.80;;;;;;;;;;4975302;28;20203;-80
2023/12/01 10:54:09;;;;;;;31.33;18.40;;;;;;;;;;4966959;28;20195;-80
2023/12/01 10:56:39;;;;;;;30.73;19.83;;;;;;;;;;4990129;28;20276;-78
2023/12/01 10:59:08;;;;;;;31.03;18.37;;;;;;;;;;4986786;28;20215;-80
2023/12/01 11:01:36;;;;;;;30.47;18.60;;;;;;;;;;4964743;28;20547;-81
2023/12/01 11:04:06;;;;;;;32.47;19.30;;;;;;;;;;4973452;28;20188;-80
2023/12/01 11:06:53;;;;;;;32.60;19.30;;;;;;;;;;4964891;28;20605;-80
2023/12/01 11:09:25;;;;;;;31.57;18.33;;;;;;;;;;4985796;28;20204;-80
2023/12/01 11:11:57;;;;;;;28.07;17.80;;;;;;;;;;4987469;28;20199;-80
2023/12/01 11:14:25;;;;;;;29.10;18.17;;;;;;;;;;4989207;28;20246;-79
2023/12/01 11:16:51;;;;;;;32.80;19.27;;;;;;;;;;4973138;28;20188;-80
2023/12/01 11:19:21;;;;;;;29.33;18.03;;;;;;;;;;4989807;28;20200;-81
2023/12/01 11:21:56;;;;;;;32.03;18.20;;;;;;;;;;4978902;28;20192;-76
2023/12/01 11:24:23;;;;;;;28.63;17.90;;;;;;;;;;5001650;28;20226;-78
2023/12/01 11:26:51;;;;;;;31.10;18.60;;;;;;;;;;4969859;28;20283;-75
2023/12/01 11:29:19;;;;;;;27.60;18.23;;;;;;;;;;4988320;28;20570;-77
2023/12/01 11:31:52;;;;;;;31.20;19.33;;;;;;;;;;4983212;28;20195;-76
2023/12/01 11:34:20;;;;;;;31.07;19.27;;;;;;;;;;4987245;28;20258;-76
2023/12/01 11:36:49;;;;;;;32.70;19.90;;;;;;;;;;4988652;28;20180;-77
2023/12/01 11:39:17;;;;;;;30.23;18.03;;;;;;;;;;4991574;28;20195;-77
2023/12/01 11:41:44;;;;;;;33.83;19.60;;;;;;;;;;4990468;28;20215;-77
2023/12/01 11:44:10;;;;;;;32.40;19.97;;;;;;;;;;4991700;28;20208;-77
2023/12/01 11:46:38;;;;;;;30.33;19.07;;;;;;;;;;4975553;28;20188;-75
2023/12/01 11:49:05;;;;;;;32.40;20.07;;;;;;;;;;4987205;28;20183;-75
2023/12/01 11:51:31;;;;;;;29.70;18.93;;;;;;;;;;4971078;28;20227;-76
2023/12/01 11:53:58;;;;;;;31.37;18.73;;;;;;;;;;4976232;28;20184;-72
2023/12/01 11:56:34;;;;;;;31.93;18.93;;;;;;;;;;4987056;28;20275;-76
2023/12/01 11:59:01;;;;;;;32.47;20.50;;;;;;;;;;4988157;28;20290;-74
2023/12/01 12:01:27;;;;;;;32.17;19.37;;;;;;;;;;4977511;28;20195;-74
2023/12/01 12:03:54;;;;;;;34.17;20.50;;;;;;;;;;4991001;28;20231;-74
2023/12/01 12:06:21;;;;;;;32.97;19.33;;;;;;;;;;4974302;28;20230;-74
2023/12/01 12:08:48;;;;;;;35.10;20.77;;;;;;;;;;4991345;28;20195;-74
2023/12/01 12:11:14;;;;;;;34.40;20.23;;;;;;;;;;4988999;28;20208;-74
2023/12/01 12:13:40;;;;;;;33.60;20.67;;;;;;;;;;4989141;28;20572;-74
2023/12/01 12:16:07;;;;;;;33.23;20.47;;;;;;;;;;4970110;28;20266;-74
2023/12/01 12:18:34;;;;;;;34.63;19.77;;;;;;;;;;4988331;28;20226;-74
2023/12/01 12:21:04;;;;;;;35.37;20.80;;;;;;;;;;4986794;28;20180;-74
2023/12/01 12:23:30;;;;;;;36.20;20.53;;;;;;;;;;4988394;28;20226;-77
2023/12/01 12:26:13;;;;;;;34.43;20.53;;;;;;;;;;4986400;28;20192;-76
2023/12/01 12:28:40;;;;;;;37.13;21.07;;;;;;;;;;4989908;28;20196;-76
2023/12/01 12:31:06;;;;;;;38.67;21.13;;;;;;;;;;4988111;28;20196;-76
2023/12/01 12:33:32;;;;;;;32.80;20.53;;;;;;;;;;4987146;28;20192;-76
2023/12/01 12:36:01;;;;;;;32.20;20.40;;;;;;;;;;4990643;28;20454;-76
2023/12/01 12:38:27;;;;;;;34.00;20.67;;;;;;;;;;4987319;28;20699;-75
2023/12/01 12:40:54;;;;;;;35.13;21.33;;;;;;;;;;4988877;28;20198;-78
2023/12/01 12:43:22;;;;;;;37.90;22.80;;;;;;;;;;4990888;28;20222;-77
2023/12/01 12:45:49;;;;;;;35.17;20.30;;;;;;;;;;4968281;28;20188;-77
2023/12/01 12:48:15;;;;;;;36.50;20.37;;;;;;;;;;4967369;28;20218;-75
2023/12/01 12:50:48;;;;;;;34.23;21.03;;;;;;;;;;4974120;28;20195;-79
2023/12/01 12:53:14;;;;;;;36.87;22.27;;;;;;;;;;4991350;28;20195;-79
2023/12/01 12:55:40;;;;;;;35.97;21.30;;;;;;;;;;4982877;28;20191;-79
2023/12/01 12:58:06;;;;;;;38.47;22.47;;;;;;;;;;4961157;28;20331;-81
2023/12/01 13:00:33;;;;;;;37.13;21.47;;;;;;;;;;4986328;28;20278;-78
2023/12/01 13:02:59;;;;;;;38.00;21.83;;;;;;;;;;4990098;28;20270;-77
2023/12/01 13:05:26;;;;;;;35.47;20.53;;;;;;;;;;4988370;28;20192;-77
2023/12/01 13:07:53;;;;;;;38.70;21.90;;;;;;;;;;4973104;28;20234;-77
2023/12/01 13:10:19;;;;;;;37.77;21.90;;;;;;;;;;4984861;28;20195;-77
2023/12/01 13:12:45;;;;;;;38.17;21.60;;;;;;;;;;4979048;28;20596;-77
2023/12/01 13:15:12;;;;;;;36.13;21.57;;;;;;;;;;4984208;28;20188;-77
2023/12/01 13:17:38;;;;;;;36.83;21.80;;;;;;;;;;4971406;28;20228;-77
2023/12/01 13:20:05;;;;;;;37.90;22.63;;;;;;;;;;4991542;28;20246;-77
2023/12/01 13:22:31;;;;;;;35.83;21.83;;;;;;;;;;4975329;28;20211;-77
2023/12/01 13:24:57;;;;;;;42.17;23.37;;;;;;;;;;4976432;28;20192;-77
2023/12/01 13:27:23;;;;;;;37.07;22.03;;;;;;;;;;4994203;28;20204;-77
2023/12/01 13:29:49;;;;;;;34.90;21.30;;;;;;;;;;4994780;28;20596;-77
2023/12/01 13:32:16;;;;;;;31.70;20.17;;;;;;;;;;4994938;28;20196;-77
2023/12/01 13:34:42;;;;;;;34.40;21.20;;;;;;;;;;4993861;28;20192;-78
2023/12/01 13:37:08;;;;;;;34.57;21.40;;;;;;;;;;4994614;28;20227;-77
2023/12/01 13:39:35;;;;;;;39.20;20.33;;;;;;;;;;4993467;28;20287;-77
2023/12/01 13:42:02;;;;;;;32.53;20.40;;;;;;;;;;5010495;28;20583;-77
2023/12/01 13:44:28;;;;;;;31.43;18.90;;;;;;;;;;4994824;28;20183;-77
2023/12/01 13:46:54;;;;;;;29.83;19.83;;;;;;;;;;4990724;28;20280;-78
2023/12/01 13:49:21;;;;;;;28.93;18.63;;;;;;;;;;4983882;28;20175;-77
2023/12/01 13:51:47;;;;;;;32.60;19.80;;;;;;;;;;4993356;28;20264;-77
2023/12/01 13:54:13;;;;;;;38.13;21.60;;;;;;;;;;4989693;28;20196;-77
2023/12/01 13:56:40;;;;;;;36.27;21.33;;;;;;;;;;4982275;28;20180;-77
2023/12/01 13:59:06;;;;;;;32.83;20.17;;;;;;;;;;5006608;28;20210;-78
2023/12/01 14:01:32;;;;;;;31.37;18.83;;;;;;;;;;4989050;28;20191;-78
2023/12/01 14:03:59;;;;;;;32.93;19.50;;;;;;;;;;4971001;28;20295;-77
2023/12/01 14:06:25;;;;;;;31.97;19.27;;;;;;;;;;4982062;28;20192;-78
2023/12/01 14:08:51;;;;;;;29.90;18.13;;;;;;;;;;4989062;28;20250;-78
2023/12/01 14:11:17;;;;;;;30.07;18.60;;;;;;;;;;4968729;28;20563;-77
2023/12/01 14:13:43;;;;;;;35.30;21.33;;;;;;;;;;5003774;28;20179;-77
2023/12/01 14:16:10;;;;;;;34.83;20.30;;;;;;;;;;4985743;28;20238;-77